»·PEaware :: UAL4630 KLAS-KDEN

UAL4630 :: KLAS-KDEN

FLIGHT INFORMATION

Flight Status: Arrived
Operator:
United Airlines
More flights by this operator :: More flights under this callsign
Pilot: Aundrey S. (17120)
Aircraft: AIRBUS A320
(A320)
More flights by this aircraft type
Origin: KLAS McCarran Intl
United States
Destination: KDEN Denver Intl
United States
More flights between these airports :: More routes between these airports
Route: +TRALR2 DVC WOLLF CREDE3
File this flight plan on PilotEdge
Remarks:
Altitude:
(Current/Filed)
35,000ft
Speed:
(Current/Filed)
450kts
Departed: 15-May-18 05:25 PM
Arrived: 15-May-18 07:09 PM
Distance/Time
Traveled:
544nm/1:44
Distance/Time
To Go:
Arrived

Flight Plot

Page will automatically refresh every two minutes.

Flight plan parsing failed; only flown route is shown


Map Options




Map Legend


Flown Route
Filed Route
Departure Airport
Arrival Airport
Navaid (VOR, NDB)
Fix

Horizontal Profiles

Position Reports

Time Latitude Longitude Heading Altitude Ground
Speed
15-May-18 16:38 36.082877 -115.138780 223 2065ft 0kts
15-May-18 16:39 36.082877 -115.138780 223 2065ft 0kts
15-May-18 16:40 36.082877 -115.138780 223 2065ft 0kts
15-May-18 16:41 36.082877 -115.138780 223 2065ft 0kts
15-May-18 16:42 36.082877 -115.138780 223 2065ft 0kts
15-May-18 16:43 36.082877 -115.138780 223 2065ft 0kts
15-May-18 16:44 36.082877 -115.138780 223 2065ft 0kts
15-May-18 16:45 36.082877 -115.138780 223 2065ft 0kts
15-May-18 16:46 36.082877 -115.138780 223 2065ft 0kts
15-May-18 16:47 36.082877 -115.138780 223 2065ft 0kts
15-May-18 16:48 36.082877 -115.138780 223 2065ft 0kts
15-May-18 16:49 36.082877 -115.138780 223 2065ft 0kts
15-May-18 16:50 36.082877 -115.138780 223 2065ft 0kts
15-May-18 16:51 36.082877 -115.138780 223 2065ft 0kts
15-May-18 16:52 36.082877 -115.138780 223 2065ft 0kts
15-May-18 16:53 36.082877 -115.138780 223 2065ft 0kts
15-May-18 16:54 36.082877 -115.138780 223 2065ft 0kts
15-May-18 16:55 36.082877 -115.138780 223 2065ft 0kts
15-May-18 16:56 36.082877 -115.138780 223 2065ft 0kts
15-May-18 16:57 36.082877 -115.138780 223 2065ft 0kts
15-May-18 16:58 36.082877 -115.138780 223 2065ft 0kts
15-May-18 16:59 36.082877 -115.138780 223 2065ft 0kts
15-May-18 17:00 36.082877 -115.138780 223 2065ft 0kts
15-May-18 17:01 36.082877 -115.138780 223 2065ft 0kts
15-May-18 17:02 36.082877 -115.138780 223 2065ft 0kts
15-May-18 17:03 36.082877 -115.138780 223 2065ft 0kts
15-May-18 17:04 36.082877 -115.138780 223 2065ft 0kts
15-May-18 17:05 36.083294 -115.138278 223 2062ft 0kts
15-May-18 17:06 36.083592 -115.137933 223 2061ft 0kts
15-May-18 17:07 36.084033 -115.137432 222 2059ft 0kts
15-May-18 17:08 36.084033 -115.137432 222 2059ft 0kts
15-May-18 17:09 36.084033 -115.137432 222 2059ft 0kts
15-May-18 17:10 36.084033 -115.137432 222 2059ft 0kts
15-May-18 17:11 36.083946 -115.137620 252 2059ft 8kts
15-May-18 17:12 36.083380 -115.141429 224 2071ft 15kts
15-May-18 17:13 36.080045 -115.141597 180 2081ft 0kts
15-May-18 17:14 36.080045 -115.141597 180 2081ft 0kts
15-May-18 17:15 36.079774 -115.141592 178 2082ft 12kts
15-May-18 17:16 36.077668 -115.145726 273 2099ft 23kts
15-May-18 17:17 36.077954 -115.150136 273 2113ft 0kts
15-May-18 17:18 36.078033 -115.153849 270 2127ft 21kts
15-May-18 17:19 36.078026 -115.161851 270 2155ft 21kts
15-May-18 17:20 36.073873 -115.165787 261 2178ft 17kts
15-May-18 17:21 36.075633 -115.170719 311 2187ft 9kts
15-May-18 17:22 36.075775 -115.170877 327 2187ft 0kts
15-May-18 17:23 36.075775 -115.170877 327 2187ft 0kts
15-May-18 17:24 36.076261 -115.170974 40 2186ft 11kts
15-May-18 17:25 36.076423 -115.145609 87 2101ft 93kts
15-May-18 17:26 36.074967 -115.134222 270 2067ft 0kts
15-May-18 17:27 36.074967 -115.134222 270 2067ft 0kts
15-May-18 17:28 36.074967 -115.134222 270 2067ft 0kts
15-May-18 17:29 36.074967 -115.134222 270 2067ft 0kts
15-May-18 17:30 36.074967 -115.134222 270 2067ft 0kts
15-May-18 17:31 36.074967 -115.134222 270 2067ft 0kts
15-May-18 17:32 36.074967 -115.134222 270 2067ft 0kts
15-May-18 17:33 36.074967 -115.134222 270 2067ft 0kts
15-May-18 17:34 36.074967 -115.134222 270 2067ft 0kts
15-May-18 17:35 36.074967 -115.134222 270 2067ft 0kts
15-May-18 17:36 36.075028 -115.138174 269 2078ft 22kts
15-May-18 17:37 36.075008 -115.147348 270 2107ft 35kts
15-May-18 17:38 36.075009 -115.158604 269 2152ft 30kts
15-May-18 17:39 36.073932 -115.166240 285 2179ft 18kts
15-May-18 17:40 36.074929 -115.168908 295 2185ft 0kts
15-May-18 17:41 36.074929 -115.168908 295 2185ft 0kts
15-May-18 17:42 36.074928 -115.168908 295 2185ft 0kts
15-May-18 17:43 36.076292 -115.170802 49 2186ft 15kts
15-May-18 17:44 36.076434 -115.135183 91 2507ft 185kts
15-May-18 17:45 36.076664 -115.055368 92 4492ft 264kts
15-May-18 17:46 36.076029 -114.963401 88 7961ft 273kts
15-May-18 17:47 36.090396 -114.868226 80 10341ft 315kts
15-May-18 17:48 36.110654 -114.746715 80 10999ft 409kts
15-May-18 17:49 36.134260 -114.605646 80 13799ft 430kts
15-May-18 17:50 36.158826 -114.457446 80 16372ft 450kts
15-May-18 17:51 36.183903 -114.304819 80 18677ft 467kts
15-May-18 17:52 36.205542 -114.146292 83 18985ft 466kts
15-May-18 17:53 36.224647 -113.985818 84 19928ft 473kts
15-May-18 17:54 36.243852 -113.822389 84 21912ft 488kts
15-May-18 17:55 36.262554 -113.661352 84 22955ft 500kts
15-May-18 17:56 36.281999 -113.492034 84 23097ft 498kts
15-May-18 17:57 36.300984 -113.324378 84 23098ft 496kts
15-May-18 17:58 36.336706 -113.160617 67 23100ft 502kts
15-May-18 17:59 36.394734 -113.002936 66 23805ft 507kts
15-May-18 18:00 36.454256 -112.842088 66 25428ft 518kts
15-May-18 18:01 36.513894 -112.680115 66 27375ft 517kts
15-May-18 18:02 36.573396 -112.517668 65 29118ft 517kts
15-May-18 18:03 36.632827 -112.354568 65 30725ft 516kts
15-May-18 18:04 36.690840 -112.194388 66 32129ft 514kts
15-May-18 18:05 36.749319 -112.032191 66 33359ft 512kts
15-May-18 18:06 36.807740 -111.869291 65 34251ft 516kts
15-May-18 18:07 36.865674 -111.706904 65 35015ft 513kts
15-May-18 18:08 36.922784 -111.545972 65 35010ft 514kts
15-May-18 18:09 36.980274 -111.383077 65 35002ft 512kts
15-May-18 18:10 37.037033 -111.221293 65 34996ft 514kts
15-May-18 18:11 37.094301 -111.057279 65 34995ft 514kts
15-May-18 18:12 37.150758 -110.895065 65 34994ft 514kts
15-May-18 18:13 37.207435 -110.730994 65 34993ft 514kts
15-May-18 18:14 37.263971 -110.566438 66 34998ft 513kts
15-May-18 18:15 37.317901 -110.408573 66 34996ft 487kts
15-May-18 18:16 37.370534 -110.253564 67 35145ft 489kts
15-May-18 18:17 37.423648 -110.096437 67 35159ft 489kts
15-May-18 18:18 37.476241 -109.940043 67 35165ft 479kts
15-May-18 18:19 37.527756 -109.786014 67 35164ft 482kts
15-May-18 18:20 37.579675 -109.629959 67 35161ft 482kts
15-May-18 18:21 37.631256 -109.474099 67 35158ft 482kts
15-May-18 18:22 37.673680 -109.345273 68 35159ft 482kts
15-May-18 18:23 37.724482 -109.190127 68 35158ft 482kts
15-May-18 18:24 37.775366 -109.034011 68 35158ft 482kts
15-May-18 18:25 37.832728 -108.882552 57 35138ft 482kts
15-May-18 18:26 37.903238 -108.738170 57 35135ft 481kts
15-May-18 18:27 37.973373 -108.594151 57 35133ft 482kts
15-May-18 18:28 38.043363 -108.449801 57 35131ft 481kts
15-May-18 18:29 38.109897 -108.311969 58 35132ft 481kts
15-May-18 18:30 38.190819 -108.143728 58 35321ft 479kts
15-May-18 18:31 38.260120 -107.998805 58 35062ft 478kts
15-May-18 18:32 38.317821 -107.877645 58 35083ft 481kts
15-May-18 18:33 38.386683 -107.732454 58 35077ft 481kts
15-May-18 18:34 38.452027 -107.594197 58 35072ft 481kts
15-May-18 18:35 38.519335 -107.447583 58 35076ft 481kts
15-May-18 18:36 38.585180 -107.303611 59 35181ft 482kts
15-May-18 18:37 38.652235 -107.156477 59 35176ft 480kts
15-May-18 18:38 38.718972 -107.009385 58 35183ft 473kts
15-May-18 18:39 38.787193 -106.858375 58 31888ft 499kts
15-May-18 18:40 38.855522 -106.706386 58 29531ft 486kts
15-May-18 18:41 38.921745 -106.558387 58 28925ft 487kts
15-May-18 18:42 38.988660 -106.408109 58 28037ft 486kts
15-May-18 18:43 39.054237 -106.260026 59 27091ft 489kts
15-May-18 18:44 39.120287 -106.110439 59 25476ft 492kts
15-May-18 18:45 39.187460 -105.957539 59 23501ft 479kts
15-May-18 18:46 39.247802 -105.819502 59 21228ft 413kts
15-May-18 18:47 39.301176 -105.696823 59 19285ft 375kts
15-May-18 18:48 39.351103 -105.582693 60 17709ft 360kts
15-May-18 18:49 39.399881 -105.472644 55 17302ft 345kts
15-May-18 18:50 39.449697 -105.378393 51 16958ft 304kts
15-May-18 18:51 39.499380 -105.283883 55 15592ft 324kts
15-May-18 18:52 39.549151 -105.188922 56 14983ft 320kts
15-May-18 18:53 39.600025 -105.091508 56 14642ft 331kts
15-May-18 18:54 39.650409 -104.994827 57 13863ft 325kts
15-May-18 18:55 39.699280 -104.900298 57 13374ft 310kts
15-May-18 18:56 39.764368 -104.844149 3 12386ft 303kts
15-May-18 18:57 39.846615 -104.840348 1 10940ft 276kts
15-May-18 18:58 39.920742 -104.839175 0 10773ft 271kts
15-May-18 18:59 39.996481 -104.839903 359 9339ft 270kts
15-May-18 19:00 40.067026 -104.840178 2 9057ft 229kts
15-May-18 19:01 40.129423 -104.831877 43 8986ft 227kts
15-May-18 19:02 40.139993 -104.757767 87 8975ft 189kts
15-May-18 19:03 40.122324 -104.701891 161 8533ft 184kts
15-May-18 19:04 40.073729 -104.687679 174 7375ft 176kts
15-May-18 19:05 40.028800 -104.685520 178 6967ft 143kts
15-May-18 19:06 39.988878 -104.685755 179 6965ft 145kts
15-May-18 19:07 39.948542 -104.686226 179 6473ft 144kts
15-May-18 19:08 39.908895 -104.686607 177 5713ft 139kts
15-May-18 19:09 39.880282 -104.686948 178 5442ft 34kts
15-May-18 19:10 39.876511 -104.685788 151 5442ft 0kts
15-May-18 19:11 39.876511 -104.685788 151 5442ft 0kts
15-May-18 19:12 39.876511 -104.685788 151 5442ft 0kts
15-May-18 19:13 39.876511 -104.685788 151 5442ft 0kts
15-May-18 19:14 39.876097 -104.685504 152 5442ft 10kts
15-May-18 19:15 39.872097 -104.684957 178 5442ft 21kts
15-May-18 19:16 39.866559 -104.685023 181 5442ft 25kts
15-May-18 19:17 39.860804 -104.685058 170 5442ft 15kts
15-May-18 19:18 39.860262 -104.680080 91 5442ft 15kts
15-May-18 19:19 39.859724 -104.676957 167 5442ft 5kts

Navigation Log

Ident Type
Flight plan parsing failed, navigation log unavailable